sensor_id;sensor_type;location;lat;lon;timestamp;P1;P2;P0
63305;PMS5003;50735;52.060;1.248;2022-08-06T00:00:28;4;3;
63305;PMS5003;50735;52.060;1.248;2022-08-06T00:02:54;4;4;
63305;PMS5003;50735;52.060;1.248;2022-08-06T00:05:21;4;4;
63305;PMS5003;50735;52.060;1.248;2022-08-06T00:07:48;4;4;
63305;PMS5003;50735;52.060;1.248;2022-08-06T00:10:15;4;4;
63305;PMS5003;50735;52.060;1.248;2022-08-06T00:12:43;5;3;
63305;PMS5003;50735;52.060;1.248;2022-08-06T00:15:11;4;4;
63305;PMS5003;50735;52.060;1.248;2022-08-06T00:17:38;4;4;
63305;PMS5003;50735;52.060;1.248;2022-08-06T00:20:06;5;3;
63305;PMS5003;50735;52.060;1.248;2022-08-06T00:22:33;4;4;
63305;PMS5003;50735;52.060;1.248;2022-08-06T00:25:00;3;3;
63305;PMS5003;50735;52.060;1.248;2022-08-06T00:27:27;4;3;
63305;PMS5003;50735;52.060;1.248;2022-08-06T00:29:54;3;3;
63305;PMS5003;50735;52.060;1.248;2022-08-06T00:32:21;6;5;
63305;PMS5003;50735;52.060;1.248;2022-08-06T00:34:47;5;3;
63305;PMS5003;50735;52.060;1.248;2022-08-06T00:37:14;5;3;
63305;PMS5003;50735;52.060;1.248;2022-08-06T00:39:40;3;3;
63305;PMS5003;50735;52.060;1.248;2022-08-06T00:42:08;3;3;
63305;PMS5003;50735;52.060;1.248;2022-08-06T00:44:34;4;3;
63305;PMS5003;50735;52.060;1.248;2022-08-06T00:47:02;4;3;
63305;PMS5003;50735;52.060;1.248;2022-08-06T00:49:29;3;3;
63305;PMS5003;50735;52.060;1.248;2022-08-06T00:51:57;3;3;
63305;PMS5003;50735;52.060;1.248;2022-08-06T00:54:23;6;3;
63305;PMS5003;50735;52.060;1.248;2022-08-06T00:56:50;3;3;
63305;PMS5003;50735;52.060;1.248;2022-08-06T00:59:17;3;3;
63305;PMS5003;50735;52.060;1.248;2022-08-06T01:01:43;5;3;
63305;PMS5003;50735;52.060;1.248;2022-08-06T01:04:10;4;4;
63305;PMS5003;50735;52.060;1.248;2022-08-06T01:06:36;6;3;
63305;PMS5003;50735;52.060;1.248;2022-08-06T01:09:03;4;4;
63305;PMS5003;50735;52.060;1.248;2022-08-06T01:11:30;5;5;
63305;PMS5003;50735;52.060;1.248;2022-08-06T01:13:56;4;4;
63305;PMS5003;50735;52.060;1.248;2022-08-06T01:16:24;5;4;
63305;PMS5003;50735;52.060;1.248;2022-08-06T01:18:55;6;4;
63305;PMS5003;50735;52.060;1.248;2022-08-06T01:21:39;5;4;
63305;PMS5003;50735;52.060;1.248;2022-08-06T01:24:22;4;4;
63305;PMS5003;50735;52.060;1.248;2022-08-06T01:27:01;5;4;
63305;PMS5003;50735;52.060;1.248;2022-08-06T01:29:45;3;3;
63305;PMS5003;50735;52.060;1.248;2022-08-06T01:32:17;4;4;
63305;PMS5003;50735;52.060;1.248;2022-08-06T01:34:53;3;3;
63305;PMS5003;50735;52.060;1.248;2022-08-06T01:37:26;6;6;
63305;PMS5003;50735;52.060;1.248;2022-08-06T01:39:58;5;3;
63305;PMS5003;50735;52.060;1.248;2022-08-06T01:42:31;4;4;
63305;PMS5003;50735;52.060;1.248;2022-08-06T01:45:00;4;4;
63305;PMS5003;50735;52.060;1.248;2022-08-06T01:47:29;10;6;
63305;PMS5003;50735;52.060;1.248;2022-08-06T01:49:59;5;2;
63305;PMS5003;50735;52.060;1.248;2022-08-06T01:52:32;6;5;
63305;PMS5003;50735;52.060;1.248;2022-08-06T01:55:01;3;3;
63305;PMS5003;50735;52.060;1.248;2022-08-06T01:57:29;3;2;
63305;PMS5003;50735;52.060;1.248;2022-08-06T02:00:00;4;3;
63305;PMS5003;50735;52.060;1.248;2022-08-06T02:02:29;4;4;
63305;PMS5003;50735;52.060;1.248;2022-08-06T02:04:59;5;5;
63305;PMS5003;50735;52.060;1.248;2022-08-06T02:07:29;6;4;
63305;PMS5003;50735;52.060;1.248;2022-08-06T02:10:00;9;6;
63305;PMS5003;50735;52.060;1.248;2022-08-06T02:12:31;5;5;
63305;PMS5003;50735;52.060;1.248;2022-08-06T02:15:00;8;7;
63305;PMS5003;50735;52.060;1.248;2022-08-06T02:17:33;6;4;
63305;PMS5003;50735;52.060;1.248;2022-08-06T02:20:04;10;7;
63305;PMS5003;50735;52.060;1.248;2022-08-06T02:22:35;10;5;
63305;PMS5003;50735;52.060;1.248;2022-08-06T02:25:06;9;6;
63305;PMS5003;50735;52.060;1.248;2022-08-06T02:27:36;8;6;
63305;PMS5003;50735;52.060;1.248;2022-08-06T02:30:08;10;6;
63305;PMS5003;50735;52.060;1.248;2022-08-06T02:32:36;8;6;
63305;PMS5003;50735;52.060;1.248;2022-08-06T02:35:03;9;7;
63305;PMS5003;50735;52.060;1.248;2022-08-06T02:37:33;6;6;
63305;PMS5003;50735;52.060;1.248;2022-08-06T02:40:05;9;5;
63305;PMS5003;50735;52.060;1.248;2022-08-06T02:42:38;9;6;
63305;PMS5003;50735;52.060;1.248;2022-08-06T02:45:10;7;7;
63305;PMS5003;50735;52.060;1.248;2022-08-06T02:47:45;9;7;
63305;PMS5003;50735;52.060;1.248;2022-08-06T02:50:17;15;9;
63305;PMS5003;50735;52.060;1.248;2022-08-06T02:52:46;8;8;
63305;PMS5003;50735;52.060;1.248;2022-08-06T02:55:16;6;6;
63305;PMS5003;50735;52.060;1.248;2022-08-06T02:57:47;7;7;
63305;PMS5003;50735;52.060;1.248;2022-08-06T03:00:17;13;7;
63305;PMS5003;50735;52.060;1.248;2022-08-06T03:02:45;8;7;
63305;PMS5003;50735;52.060;1.248;2022-08-06T03:05:15;8;8;
63305;PMS5003;50735;52.060;1.248;2022-08-06T03:07:46;9;8;
63305;PMS5003;50735;52.060;1.248;2022-08-06T03:10:16;12;7;
63305;PMS5003;50735;52.060;1.248;2022-08-06T03:12:45;8;8;
63305;PMS5003;50735;52.060;1.248;2022-08-06T03:15:13;8;6;
63305;PMS5003;50735;52.060;1.248;2022-08-06T03:17:41;8;8;
63305;PMS5003;50735;52.060;1.248;2022-08-06T03:20:09;10;9;
63305;PMS5003;50735;52.060;1.248;2022-08-06T03:22:37;12;10;
63305;PMS5003;50735;52.060;1.248;2022-08-06T03:25:07;11;8;
63305;PMS5003;50735;52.060;1.248;2022-08-06T03:27:36;9;9;
63305;PMS5003;50735;52.060;1.248;2022-08-06T03:30:05;15;12;
63305;PMS5003;50735;52.060;1.248;2022-08-06T03:32:33;11;8;
63305;PMS5003;50735;52.060;1.248;2022-08-06T03:35:00;9;9;
63305;PMS5003;50735;52.060;1.248;2022-08-06T03:37:29;9;8;
63305;PMS5003;50735;52.060;1.248;2022-08-06T03:39:59;10;10;
63305;PMS5003;50735;52.060;1.248;2022-08-06T03:42:27;11;10;
63305;PMS5003;50735;52.060;1.248;2022-08-06T03:44:54;8;8;
63305;PMS5003;50735;52.060;1.248;2022-08-06T03:47:21;11;11;
63305;PMS5003;50735;52.060;1.248;2022-08-06T03:49:50;14;12;
63305;PMS5003;50735;52.060;1.248;2022-08-06T03:52:23;8;8;
63305;PMS5003;50735;52.060;1.248;2022-08-06T03:54:54;7;7;
63305;PMS5003;50735;52.060;1.248;2022-08-06T03:57:25;12;12;
63305;PMS5003;50735;52.060;1.248;2022-08-06T03:59:57;13;10;
63305;PMS5003;50735;52.060;1.248;2022-08-06T04:02:26;8;8;
63305;PMS5003;50735;52.060;1.248;2022-08-06T04:04:55;12;10;
63305;PMS5003;50735;52.060;1.248;2022-08-06T04:07:22;15;10;
63305;PMS5003;50735;52.060;1.248;2022-08-06T04:09:49;16;10;
63305;PMS5003;50735;52.060;1.248;2022-08-06T04:12:15;12;11;
63305;PMS5003;50735;52.060;1.248;2022-08-06T04:14:44;11;11;
63305;PMS5003;50735;52.060;1.248;2022-08-06T04:17:11;14;11;
63305;PMS5003;50735;52.060;1.248;2022-08-06T04:19:38;8;8;
63305;PMS5003;50735;52.060;1.248;2022-08-06T04:22:06;11;11;
63305;PMS5003;50735;52.060;1.248;2022-08-06T04:24:32;10;10;
63305;PMS5003;50735;52.060;1.248;2022-08-06T04:27:00;16;13;
63305;PMS5003;50735;52.060;1.248;2022-08-06T04:29:30;19;16;
63305;PMS5003;50735;52.060;1.248;2022-08-06T04:31:59;16;14;
63305;PMS5003;50735;52.060;1.248;2022-08-06T04:34:28;19;14;
63305;PMS5003;50735;52.060;1.248;2022-08-06T04:36:57;13;11;
63305;PMS5003;50735;52.060;1.248;2022-08-06T04:39:25;18;12;
63305;PMS5003;50735;52.060;1.248;2022-08-06T04:41:53;16;12;
63305;PMS5003;50735;52.060;1.248;2022-08-06T04:44:21;14;13;
63305;PMS5003;50735;52.060;1.248;2022-08-06T04:46:48;15;12;
63305;PMS5003;50735;52.060;1.248;2022-08-06T04:49:16;16;12;
63305;PMS5003;50735;52.060;1.248;2022-08-06T04:51:44;16;12;
63305;PMS5003;50735;52.060;1.248;2022-08-06T04:54:12;13;12;
63305;PMS5003;50735;52.060;1.248;2022-08-06T04:56:39;12;12;
63305;PMS5003;50735;52.060;1.248;2022-08-06T04:59:07;18;12;
63305;PMS5003;50735;52.060;1.248;2022-08-06T05:01:34;12;12;
63305;PMS5003;50735;52.060;1.248;2022-08-06T05:04:01;16;12;
63305;PMS5003;50735;52.060;1.248;2022-08-06T05:06:31;15;11;
63305;PMS5003;50735;52.060;1.248;2022-08-06T05:09:09;15;13;
63305;PMS5003;50735;52.060;1.248;2022-08-06T05:11:46;13;13;
63305;PMS5003;50735;52.060;1.248;2022-08-06T05:14:19;18;15;
63305;PMS5003;50735;52.060;1.248;2022-08-06T05:16:50;19;13;
63305;PMS5003;50735;52.060;1.248;2022-08-06T05:19:19;14;12;
63305;PMS5003;50735;52.060;1.248;2022-08-06T05:21:52;16;16;
63305;PMS5003;50735;52.060;1.248;2022-08-06T05:24:21;18;14;
63305;PMS5003;50735;52.060;1.248;2022-08-06T05:26:48;15;12;
63305;PMS5003;50735;52.060;1.248;2022-08-06T05:29:17;16;14;
63305;PMS5003;50735;52.060;1.248;2022-08-06T05:31:45;16;16;
63305;PMS5003;50735;52.060;1.248;2022-08-06T05:34:13;16;16;
63305;PMS5003;50735;52.060;1.248;2022-08-06T05:36:40;13;13;
63305;PMS5003;50735;52.060;1.248;2022-08-06T05:39:07;20;19;
63305;PMS5003;50735;52.060;1.248;2022-08-06T05:41:34;15;14;
63305;PMS5003;50735;52.060;1.248;2022-08-06T05:44:01;20;17;
63305;PMS5003;50735;52.060;1.248;2022-08-06T05:46:29;24;19;
63305;PMS5003;50735;52.060;1.248;2022-08-06T05:49:03;19;17;
63305;PMS5003;50735;52.060;1.248;2022-08-06T05:51:34;16;16;
63305;PMS5003;50735;52.060;1.248;2022-08-06T05:54:08;22;20;
63305;PMS5003;50735;52.060;1.248;2022-08-06T05:56:41;20;17;
63305;PMS5003;50735;52.060;1.248;2022-08-06T05:59:17;19;19;
63305;PMS5003;50735;52.060;1.248;2022-08-06T06:01:46;24;19;
63305;PMS5003;50735;52.060;1.248;2022-08-06T06:04:14;20;19;
63305;PMS5003;50735;52.060;1.248;2022-08-06T06:06:43;21;17;
63305;PMS5003;50735;52.060;1.248;2022-08-06T06:09:11;17;17;
63305;PMS5003;50735;52.060;1.248;2022-08-06T06:11:38;22;22;
63305;PMS5003;50735;52.060;1.248;2022-08-06T06:14:07;23;18;
63305;PMS5003;50735;52.060;1.248;2022-08-06T06:16:46;19;19;
63305;PMS5003;50735;52.060;1.248;2022-08-06T06:19:24;20;19;
63305;PMS5003;50735;52.060;1.248;2022-08-06T06:22:12;23;20;
63305;PMS5003;50735;52.060;1.248;2022-08-06T06:24:46;23;20;
63305;PMS5003;50735;52.060;1.248;2022-08-06T06:27:19;23;20;
63305;PMS5003;50735;52.060;1.248;2022-08-06T06:29:56;24;20;
63305;PMS5003;50735;52.060;1.248;2022-08-06T06:32:30;24;23;
63305;PMS5003;50735;52.060;1.248;2022-08-06T06:35:12;29;25;
63305;PMS5003;50735;52.060;1.248;2022-08-06T06:37:46;23;21;
63305;PMS5003;50735;52.060;1.248;2022-08-06T06:40:24;18;15;
63305;PMS5003;50735;52.060;1.248;2022-08-06T06:43:02;26;22;
63305;PMS5003;50735;52.060;1.248;2022-08-06T06:45:36;20;18;
63305;PMS5003;50735;52.060;1.248;2022-08-06T06:48:09;23;21;
63305;PMS5003;50735;52.060;1.248;2022-08-06T06:50:43;18;18;
63305;PMS5003;50735;52.060;1.248;2022-08-06T06:53:12;22;20;
63305;PMS5003;50735;52.060;1.248;2022-08-06T06:55:43;26;23;
63305;PMS5003;50735;52.060;1.248;2022-08-06T06:58:14;26;22;
63305;PMS5003;50735;52.060;1.248;2022-08-06T07:00:45;23;19;
63305;PMS5003;50735;52.060;1.248;2022-08-06T07:03:13;22;20;
63305;PMS5003;50735;52.060;1.248;2022-08-06T07:05:44;32;24;
63305;PMS5003;50735;52.060;1.248;2022-08-06T07:08:14;20;16;
63305;PMS5003;50735;52.060;1.248;2022-08-06T07:10:44;18;18;
63305;PMS5003;50735;52.060;1.248;2022-08-06T07:13:13;21;20;
63305;PMS5003;50735;52.060;1.248;2022-08-06T07:15:42;24;22;
63305;PMS5003;50735;52.060;1.248;2022-08-06T07:18:10;18;17;
63305;PMS5003;50735;52.060;1.248;2022-08-06T07:20:39;18;18;
63305;PMS5003;50735;52.060;1.248;2022-08-06T07:23:09;16;14;
63305;PMS5003;50735;52.060;1.248;2022-08-06T07:25:37;24;21;
63305;PMS5003;50735;52.060;1.248;2022-08-06T07:28:07;19;16;
63305;PMS5003;50735;52.060;1.248;2022-08-06T07:30:36;21;18;
63305;PMS5003;50735;52.060;1.248;2022-08-06T07:33:04;16;14;
63305;PMS5003;50735;52.060;1.248;2022-08-06T07:35:31;13;12;
63305;PMS5003;50735;52.060;1.248;2022-08-06T07:37:59;25;21;
63305;PMS5003;50735;52.060;1.248;2022-08-06T07:40:30;20;14;
63305;PMS5003;50735;52.060;1.248;2022-08-06T07:43:00;14;11;
63305;PMS5003;50735;52.060;1.248;2022-08-06T07:45:32;14;13;
63305;PMS5003;50735;52.060;1.248;2022-08-06T07:48:00;18;14;
63305;PMS5003;50735;52.060;1.248;2022-08-06T07:50:33;21;20;
63305;PMS5003;50735;52.060;1.248;2022-08-06T07:53:00;14;13;
63305;PMS5003;50735;52.060;1.248;2022-08-06T07:55:27;14;12;
63305;PMS5003;50735;52.060;1.248;2022-08-06T07:57:56;16;16;
63305;PMS5003;50735;52.060;1.248;2022-08-06T08:00:23;12;11;
63305;PMS5003;50735;52.060;1.248;2022-08-06T08:02:51;17;17;
63305;PMS5003;50735;52.060;1.248;2022-08-06T08:05:19;14;14;
63305;PMS5003;50735;52.060;1.248;2022-08-06T08:07:46;11;11;
63305;PMS5003;50735;52.060;1.248;2022-08-06T08:10:13;14;12;
63305;PMS5003;50735;52.060;1.248;2022-08-06T08:12:43;12;12;
63305;PMS5003;50735;52.060;1.248;2022-08-06T08:15:11;14;12;
63305;PMS5003;50735;52.060;1.248;2022-08-06T08:17:38;11;11;
63305;PMS5003;50735;52.060;1.248;2022-08-06T08:20:05;13;11;
63305;PMS5003;50735;52.060;1.248;2022-08-06T08:22:33;12;10;
63305;PMS5003;50735;52.060;1.248;2022-08-06T08:25:01;8;8;
63305;PMS5003;50735;52.060;1.248;2022-08-06T08:27:27;9;9;
63305;PMS5003;50735;52.060;1.248;2022-08-06T08:29:54;10;8;
63305;PMS5003;50735;52.060;1.248;2022-08-06T08:32:20;8;8;
63305;PMS5003;50735;52.060;1.248;2022-08-06T08:34:48;12;8;
63305;PMS5003;50735;52.060;1.248;2022-08-06T08:37:14;10;8;
63305;PMS5003;50735;52.060;1.248;2022-08-06T08:39:41;10;9;
63305;PMS5003;50735;52.060;1.248;2022-08-06T08:42:09;9;9;
63305;PMS5003;50735;52.060;1.248;2022-08-06T08:44:40;8;8;
63305;PMS5003;50735;52.060;1.248;2022-08-06T08:47:07;12;7;
63305;PMS5003;50735;52.060;1.248;2022-08-06T08:49:37;12;8;
63305;PMS5003;50735;52.060;1.248;2022-08-06T08:52:06;6;6;
63305;PMS5003;50735;52.060;1.248;2022-08-06T08:54:36;11;9;
63305;PMS5003;50735;52.060;1.248;2022-08-06T08:57:07;10;6;
63305;PMS5003;50735;52.060;1.248;2022-08-06T08:59:35;5;5;
63305;PMS5003;50735;52.060;1.248;2022-08-06T09:02:04;6;6;
63305;PMS5003;50735;52.060;1.248;2022-08-06T09:04:31;7;7;
63305;PMS5003;50735;52.060;1.248;2022-08-06T09:06:58;5;5;
63305;PMS5003;50735;52.060;1.248;2022-08-06T09:09:25;5;5;
63305;PMS5003;50735;52.060;1.248;2022-08-06T09:11:54;5;4;
63305;PMS5003;50735;52.060;1.248;2022-08-06T09:14:22;5;5;
63305;PMS5003;50735;52.060;1.248;2022-08-06T09:16:48;8;6;
63305;PMS5003;50735;52.060;1.248;2022-08-06T09:19:16;7;6;
63305;PMS5003;50735;52.060;1.248;2022-08-06T09:21:43;6;5;
63305;PMS5003;50735;52.060;1.248;2022-08-06T09:24:10;5;5;
63305;PMS5003;50735;52.060;1.248;2022-08-06T09:26:38;6;4;
63305;PMS5003;50735;52.060;1.248;2022-08-06T09:29:27;3;3;
63305;PMS5003;50735;52.060;1.248;2022-08-06T09:31:53;5;5;
63305;PMS5003;50735;52.060;1.248;2022-08-06T09:34:21;7;5;
63305;PMS5003;50735;52.060;1.248;2022-08-06T09:36:48;5;3;
63305;PMS5003;50735;52.060;1.248;2022-08-06T09:39:15;6;6;
63305;PMS5003;50735;52.060;1.248;2022-08-06T09:41:46;7;4;
63305;PMS5003;50735;52.060;1.248;2022-08-06T09:44:13;6;5;
63305;PMS5003;50735;52.060;1.248;2022-08-06T09:46:42;3;3;
63305;PMS5003;50735;52.060;1.248;2022-08-06T09:49:11;4;4;
63305;PMS5003;50735;52.060;1.248;2022-08-06T09:51:40;7;7;
63305;PMS5003;50735;52.060;1.248;2022-08-06T09:54:07;5;5;
63305;PMS5003;50735;52.060;1.248;2022-08-06T09:56:35;6;4;
63305;PMS5003;50735;52.060;1.248;2022-08-06T09:59:05;4;4;
63305;PMS5003;50735;52.060;1.248;2022-08-06T10:01:37;7;6;
63305;PMS5003;50735;52.060;1.248;2022-08-06T10:04:05;9;5;
63305;PMS5003;50735;52.060;1.248;2022-08-06T10:06:32;6;5;
63305;PMS5003;50735;52.060;1.248;2022-08-06T10:09:07;6;5;
63305;PMS5003;50735;52.060;1.248;2022-08-06T10:11:37;5;5;
63305;PMS5003;50735;52.060;1.248;2022-08-06T10:14:06;6;6;
63305;PMS5003;50735;52.060;1.248;2022-08-06T10:17:02;4;4;
63305;PMS5003;50735;52.060;1.248;2022-08-06T10:19:30;5;4;
63305;PMS5003;50735;52.060;1.248;2022-08-06T10:22:02;4;3;
63305;PMS5003;50735;52.060;1.248;2022-08-06T10:24:30;11;8;
63305;PMS5003;50735;52.060;1.248;2022-08-06T10:26:59;4;4;
63305;PMS5003;50735;52.060;1.248;2022-08-06T10:29:26;9;9;
63305;PMS5003;50735;52.060;1.248;2022-08-06T10:31:54;12;7;
63305;PMS5003;50735;52.060;1.248;2022-08-06T10:34:24;7;7;
63305;PMS5003;50735;52.060;1.248;2022-08-06T10:36:54;4;4;
63305;PMS5003;50735;52.060;1.248;2022-08-06T10:39:25;3;3;
63305;PMS5003;50735;52.060;1.248;2022-08-06T10:41:54;6;6;
63305;PMS5003;50735;52.060;1.248;2022-08-06T10:44:22;4;4;
63305;PMS5003;50735;52.060;1.248;2022-08-06T10:46:50;7;5;
63305;PMS5003;50735;52.060;1.248;2022-08-06T10:49:18;6;6;
63305;PMS5003;50735;52.060;1.248;2022-08-06T10:51:47;3;3;
63305;PMS5003;50735;52.060;1.248;2022-08-06T10:54:15;6;4;
63305;PMS5003;50735;52.060;1.248;2022-08-06T10:56:43;7;5;
63305;PMS5003;50735;52.060;1.248;2022-08-06T10:59:11;6;5;
63305;PMS5003;50735;52.060;1.248;2022-08-06T11:01:49;8;7;
63305;PMS5003;50735;52.060;1.248;2022-08-06T11:04:27;8;6;
63305;PMS5003;50735;52.060;1.248;2022-08-06T11:07:09;6;6;
63305;PMS5003;50735;52.060;1.248;2022-08-06T11:09:53;9;6;
63305;PMS5003;50735;52.060;1.248;2022-08-06T11:12:34;7;7;
63305;PMS5003;50735;52.060;1.248;2022-08-06T11:15:13;7;7;
63305;PMS5003;50735;52.060;1.248;2022-08-06T11:17:42;5;5;
63305;PMS5003;50735;52.060;1.248;2022-08-06T11:20:33;6;6;
63305;PMS5003;50735;52.060;1.248;2022-08-06T11:23:02;6;5;
63305;PMS5003;50735;52.060;1.248;2022-08-06T11:25:39;7;6;
63305;PMS5003;50735;52.060;1.248;2022-08-06T11:28:07;7;5;
63305;PMS5003;50735;52.060;1.248;2022-08-06T11:30:36;8;7;
63305;PMS5003;50735;52.060;1.248;2022-08-06T11:33:05;9;7;
63305;PMS5003;50735;52.060;1.248;2022-08-06T11:35:40;11;6;
63305;PMS5003;50735;52.060;1.248;2022-08-06T11:38:09;8;6;
63305;PMS5003;50735;52.060;1.248;2022-08-06T11:40:54;6;6;
63305;PMS5003;50735;52.060;1.248;2022-08-06T11:43:41;6;6;
63305;PMS5003;50735;52.060;1.248;2022-08-06T11:46:27;7;6;
63305;PMS5003;50735;52.060;1.248;2022-08-06T11:49:11;7;6;
63305;PMS5003;50735;52.060;1.248;2022-08-06T11:51:40;5;4;
63305;PMS5003;50735;52.060;1.248;2022-08-06T11:54:10;7;7;
63305;PMS5003;50735;52.060;1.248;2022-08-06T11:57:43;7;6;
63305;PMS5003;50735;52.060;1.248;2022-08-06T12:00:11;7;7;
63305;PMS5003;50735;52.060;1.248;2022-08-06T12:02:46;5;5;
63305;PMS5003;50735;52.060;1.248;2022-08-06T12:05:47;6;6;
63305;PMS5003;50735;52.060;1.248;2022-08-06T12:08:15;5;5;
63305;PMS5003;50735;52.060;1.248;2022-08-06T12:11:49;6;6;
63305;PMS5003;50735;52.060;1.248;2022-08-06T12:14:36;3;3;
63305;PMS5003;50735;52.060;1.248;2022-08-06T12:17:09;5;5;
63305;PMS5003;50735;52.060;1.248;2022-08-06T12:19:41;3;3;
63305;PMS5003;50735;52.060;1.248;2022-08-06T12:22:09;5;3;
63305;PMS5003;50735;52.060;1.248;2022-08-06T12:24:38;3;3;
63305;PMS5003;50735;52.060;1.248;2022-08-06T12:27:05;3;3;
63305;PMS5003;50735;52.060;1.248;2022-08-06T12:29:32;6;4;
63305;PMS5003;50735;52.060;1.248;2022-08-06T12:32:01;6;6;
63305;PMS5003;50735;52.060;1.248;2022-08-06T12:34:28;12;6;
63305;PMS5003;50735;52.060;1.248;2022-08-06T12:36:55;6;4;
63305;PMS5003;50735;52.060;1.248;2022-08-06T12:39:23;4;4;
63305;PMS5003;50735;52.060;1.248;2022-08-06T12:41:50;5;4;
63305;PMS5003;50735;52.060;1.248;2022-08-06T12:44:16;6;4;
63305;PMS5003;50735;52.060;1.248;2022-08-06T12:47:09;2;2;
63305;PMS5003;50735;52.060;1.248;2022-08-06T12:49:36;5;3;
63305;PMS5003;50735;52.060;1.248;2022-08-06T12:52:11;6;3;
63305;PMS5003;50735;52.060;1.248;2022-08-06T12:54:39;3;3;
63305;PMS5003;50735;52.060;1.248;2022-08-06T12:57:05;4;4;
63305;PMS5003;50735;52.060;1.248;2022-08-06T12:59:33;2;2;
63305;PMS5003;50735;52.060;1.248;2022-08-06T13:02:00;5;5;
63305;PMS5003;50735;52.060;1.248;2022-08-06T13:04:28;3;3;
63305;PMS5003;50735;52.060;1.248;2022-08-06T13:06:56;5;5;
63305;PMS5003;50735;52.060;1.248;2022-08-06T13:09:30;4;4;
63305;PMS5003;50735;52.060;1.248;2022-08-06T13:11:57;4;4;
63305;PMS5003;50735;52.060;1.248;2022-08-06T13:14:25;5;4;
63305;PMS5003;50735;52.060;1.248;2022-08-06T13:16:52;5;3;
63305;PMS5003;50735;52.060;1.248;2022-08-06T13:19:19;6;4;
63305;PMS5003;50735;52.060;1.248;2022-08-06T13:21:56;3;3;
63305;PMS5003;50735;52.060;1.248;2022-08-06T13:24:25;7;6;
63305;PMS5003;50735;52.060;1.248;2022-08-06T13:26:53;2;2;
63305;PMS5003;50735;52.060;1.248;2022-08-06T13:29:20;4;4;
63305;PMS5003;50735;52.060;1.248;2022-08-06T13:31:57;5;3;
63305;PMS5003;50735;52.060;1.248;2022-08-06T13:34:27;4;4;
63305;PMS5003;50735;52.060;1.248;2022-08-06T13:36:55;4;3;
63305;PMS5003;50735;52.060;1.248;2022-08-06T13:39:24;4;4;
63305;PMS5003;50735;52.060;1.248;2022-08-06T13:42:00;3;3;
63305;PMS5003;50735;52.060;1.248;2022-08-06T13:44:30;2;2;
63305;PMS5003;50735;52.060;1.248;2022-08-06T13:46:58;5;4;
63305;PMS5003;50735;52.060;1.248;2022-08-06T13:49:26;3;3;
63305;PMS5003;50735;52.060;1.248;2022-08-06T13:51:53;11;5;
63305;PMS5003;50735;52.060;1.248;2022-08-06T13:54:21;5;3;
63305;PMS5003;50735;52.060;1.248;2022-08-06T13:56:50;4;4;
63305;PMS5003;50735;52.060;1.248;2022-08-06T13:59:18;5;3;
63305;PMS5003;50735;52.060;1.248;2022-08-06T14:01:47;5;4;
63305;PMS5003;50735;52.060;1.248;2022-08-06T14:04:15;4;3;
63305;PMS5003;50735;52.060;1.248;2022-08-06T14:06:43;6;3;
63305;PMS5003;50735;52.060;1.248;2022-08-06T14:09:11;6;4;
63305;PMS5003;50735;52.060;1.248;2022-08-06T14:11:38;5;3;
63305;PMS5003;50735;52.060;1.248;2022-08-06T14:14:04;4;4;
63305;PMS5003;50735;52.060;1.248;2022-08-06T14:16:31;3;3;
63305;PMS5003;50735;52.060;1.248;2022-08-06T14:18:57;6;4;
63305;PMS5003;50735;52.060;1.248;2022-08-06T14:21:24;6;4;
63305;PMS5003;50735;52.060;1.248;2022-08-06T14:23:50;4;4;
63305;PMS5003;50735;52.060;1.248;2022-08-06T14:26:18;3;3;
63305;PMS5003;50735;52.060;1.248;2022-08-06T14:28:45;4;4;
63305;PMS5003;50735;52.060;1.248;2022-08-06T14:31:11;5;3;
63305;PMS5003;50735;52.060;1.248;2022-08-06T14:33:38;6;4;
63305;PMS5003;50735;52.060;1.248;2022-08-06T14:36:05;3;3;
63305;PMS5003;50735;52.060;1.248;2022-08-06T14:38:32;3;3;
63305;PMS5003;50735;52.060;1.248;2022-08-06T14:41:00;4;4;
63305;PMS5003;50735;52.060;1.248;2022-08-06T14:43:27;7;5;
63305;PMS5003;50735;52.060;1.248;2022-08-06T14:45:54;5;3;
63305;PMS5003;50735;52.060;1.248;2022-08-06T14:48:20;5;3;
63305;PMS5003;50735;52.060;1.248;2022-08-06T14:50:46;2;2;
63305;PMS5003;50735;52.060;1.248;2022-08-06T14:53:13;6;5;
63305;PMS5003;50735;52.060;1.248;2022-08-06T14:55:40;3;3;
63305;PMS5003;50735;52.060;1.248;2022-08-06T14:58:07;4;4;
63305;PMS5003;50735;52.060;1.248;2022-08-06T15:00:34;2;2;
63305;PMS5003;50735;52.060;1.248;2022-08-06T15:03:02;4;4;
63305;PMS5003;50735;52.060;1.248;2022-08-06T15:05:29;4;4;
63305;PMS5003;50735;52.060;1.248;2022-08-06T15:07:55;6;4;
63305;PMS5003;50735;52.060;1.248;2022-08-06T15:10:23;4;4;
63305;PMS5003;50735;52.060;1.248;2022-08-06T15:12:49;5;5;
63305;PMS5003;50735;52.060;1.248;2022-08-06T15:15:16;5;5;
63305;PMS5003;50735;52.060;1.248;2022-08-06T15:17:42;6;3;
63305;PMS5003;50735;52.060;1.248;2022-08-06T15:20:09;3;3;
63305;PMS5003;50735;52.060;1.248;2022-08-06T15:22:36;2;2;
63305;PMS5003;50735;52.060;1.248;2022-08-06T15:25:03;4;4;
63305;PMS5003;50735;52.060;1.248;2022-08-06T15:27:30;7;4;
63305;PMS5003;50735;52.060;1.248;2022-08-06T15:29:57;7;4;
63305;PMS5003;50735;52.060;1.248;2022-08-06T15:32:24;4;4;
63305;PMS5003;50735;52.060;1.248;2022-08-06T15:34:50;4;4;
63305;PMS5003;50735;52.060;1.248;2022-08-06T15:37:17;6;4;
63305;PMS5003;50735;52.060;1.248;2022-08-06T15:39:44;3;3;
63305;PMS5003;50735;52.060;1.248;2022-08-06T15:42:12;4;4;
63305;PMS5003;50735;52.060;1.248;2022-08-06T15:44:39;4;4;
63305;PMS5003;50735;52.060;1.248;2022-08-06T15:47:05;4;3;
63305;PMS5003;50735;52.060;1.248;2022-08-06T15:49:32;3;3;
63305;PMS5003;50735;52.060;1.248;2022-08-06T15:51:58;5;5;
63305;PMS5003;50735;52.060;1.248;2022-08-06T15:54:26;5;3;
63305;PMS5003;50735;52.060;1.248;2022-08-06T15:56:52;3;3;
63305;PMS5003;50735;52.060;1.248;2022-08-06T15:59:19;5;5;
63305;PMS5003;50735;52.060;1.248;2022-08-06T16:01:45;2;2;
63305;PMS5003;50735;52.060;1.248;2022-08-06T16:04:13;5;4;
63305;PMS5003;50735;52.060;1.248;2022-08-06T16:06:40;2;2;
63305;PMS5003;50735;52.060;1.248;2022-08-06T16:09:07;4;4;
63305;PMS5003;50735;52.060;1.248;2022-08-06T16:11:34;5;3;
63305;PMS5003;50735;52.060;1.248;2022-08-06T16:14:01;2;2;
63305;PMS5003;50735;52.060;1.248;2022-08-06T16:16:28;4;4;
63305;PMS5003;50735;52.060;1.248;2022-08-06T16:18:55;4;2;
63305;PMS5003;50735;52.060;1.248;2022-08-06T16:21:22;7;4;
63305;PMS5003;50735;52.060;1.248;2022-08-06T16:23:49;2;2;
63305;PMS5003;50735;52.060;1.248;2022-08-06T16:26:17;4;4;
63305;PMS5003;50735;52.060;1.248;2022-08-06T16:28:44;4;4;
63305;PMS5003;50735;52.060;1.248;2022-08-06T16:31:11;3;3;
63305;PMS5003;50735;52.060;1.248;2022-08-06T16:33:39;4;4;
63305;PMS5003;50735;52.060;1.248;2022-08-06T16:36:06;4;4;
63305;PMS5003;50735;52.060;1.248;2022-08-06T16:38:34;3;3;
63305;PMS5003;50735;52.060;1.248;2022-08-06T16:41:01;9;4;
63305;PMS5003;50735;52.060;1.248;2022-08-06T16:43:27;5;4;
63305;PMS5003;50735;52.060;1.248;2022-08-06T16:45:54;3;3;
63305;PMS5003;50735;52.060;1.248;2022-08-06T16:48:20;5;5;
63305;PMS5003;50735;52.060;1.248;2022-08-06T16:50:47;4;4;
63305;PMS5003;50735;52.060;1.248;2022-08-06T16:53:13;4;4;
63305;PMS5003;50735;52.060;1.248;2022-08-06T16:55:40;5;4;
63305;PMS5003;50735;52.060;1.248;2022-08-06T16:58:08;5;5;